Time;durP1;ratioP1;P1;durP2;ratioP2;P2;SDS_P1;SDS_P2;PMS_P1;PMS_P2;Temp;Humidity;BMP_temperature;BMP_pressure;BME280_temperature;BME280_humidity;BME280_pressure;Samples;Min_cycle;Max_cycle;Signal;HPM_P1;HPM_P2
2022/10/06 00:01:31;;;;;;;10.05;1.60;;;;;;;;;;5059088;28;20049;-70
2022/10/06 00:03:57;;;;;;;6.47;1.05;;;;;;;;;;5059602;28;20518;-70
2022/10/06 00:06:23;;;;;;;7.32;1.10;;;;;;;;;;5060151;28;20088;-70
2022/10/06 00:08:50;;;;;;;7.00;1.35;;;;;;;;;;5059350;28;20057;-70
2022/10/06 00:11:16;;;;;;;6.65;1.50;;;;;;;;;;5059113;28;20056;-70
2022/10/06 00:13:42;;;;;;;9.00;1.63;;;;;;;;;;5058755;28;20060;-70
2022/10/06 00:16:10;;;;;;;9.90;1.60;;;;;;;;;;5060155;28;20421;-70
2022/10/06 00:18:36;;;;;;;6.88;1.20;;;;;;;;;;5060236;28;20079;-71
2022/10/06 00:21:03;;;;;;;6.22;1.52;;;;;;;;;;5059623;28;20056;-70
2022/10/06 00:23:29;;;;;;;6.75;1.40;;;;;;;;;;5060887;28;20100;-70
2022/10/06 00:25:55;;;;;;;10.07;1.58;;;;;;;;;;5058231;28;20057;-70
2022/10/06 00:28:22;;;;;;;7.93;1.52;;;;;;;;;;5056969;28;20132;-70
2022/10/06 00:30:49;;;;;;;10.35;1.25;;;;;;;;;;5060921;28;20045;-70
2022/10/06 00:33:16;;;;;;;9.32;1.88;;;;;;;;;;5060833;28;20556;-70
2022/10/06 00:35:43;;;;;;;11.60;1.50;;;;;;;;;;5062559;28;20053;-70
2022/10/06 00:38:11;;;;;;;5.20;1.70;;;;;;;;;;5063275;28;20049;-70
2022/10/06 00:40:48;;;;;;;7.63;1.35;;;;;;;;;;5062209;28;20048;-70
2022/10/06 00:43:33;;;;;;;11.73;2.22;;;;;;;;;;5062159;28;20585;-70
2022/10/06 00:46:00;;;;;;;7.93;1.73;;;;;;;;;;5063584;28;20060;-70
2022/10/06 00:48:27;;;;;;;11.73;2.63;;;;;;;;;;5063631;28;20624;-70
2022/10/06 00:50:55;;;;;;;8.27;1.33;;;;;;;;;;5063628;28;20146;-70
2022/10/06 00:53:24;;;;;;;6.15;1.27;;;;;;;;;;5053847;28;20053;-70
2022/10/06 00:55:52;;;;;;;9.05;1.27;;;;;;;;;;5061861;28;20063;-70
2022/10/06 00:58:19;;;;;;;11.23;1.70;;;;;;;;;;5061007;28;20046;-70
2022/10/06 01:00:46;;;;;;;6.63;1.67;;;;;;;;;;5061564;28;20541;-70
2022/10/06 01:03:17;;;;;;;5.57;1.23;;;;;;;;;;5061507;28;20061;-70
2022/10/06 01:05:49;;;;;;;11.32;2.05;;;;;;;;;;5055520;28;20057;-69
2022/10/06 01:08:16;;;;;;;7.38;1.55;;;;;;;;;;5063213;28;20056;-70
2022/10/06 01:10:42;;;;;;;8.88;1.67;;;;;;;;;;5057743;28;20041;-70
2022/10/06 01:13:09;;;;;;;9.68;1.50;;;;;;;;;;5055282;28;20463;-70
2022/10/06 01:15:38;;;;;;;5.97;1.83;;;;;;;;;;5062692;28;20511;-71
2022/10/06 01:18:07;;;;;;;13.52;1.92;;;;;;;;;;5061706;28;20054;-70
2022/10/06 01:20:35;;;;;;;5.20;1.60;;;;;;;;;;5062204;28;20057;-70
2022/10/06 01:23:05;;;;;;;11.35;1.40;;;;;;;;;;5062572;28;20053;-70
2022/10/06 01:25:33;;;;;;;8.13;1.65;;;;;;;;;;5062378;28;20064;-70
2022/10/06 01:28:00;;;;;;;8.80;1.08;;;;;;;;;;5062474;28;20049;-70
2022/10/06 01:30:38;;;;;;;12.02;1.70;;;;;;;;;;5061484;28;20764;-70
2022/10/06 01:33:04;;;;;;;11.43;1.67;;;;;;;;;;5060611;28;20896;-69
2022/10/06 01:35:30;;;;;;;8.73;1.67;;;;;;;;;;5057434;28;20551;-70
2022/10/06 01:37:58;;;;;;;11.60;1.60;;;;;;;;;;5060339;28;20056;-70
2022/10/06 01:40:27;;;;;;;4.90;1.50;;;;;;;;;;5059277;28;21058;-69
2022/10/06 01:42:54;;;;;;;9.07;2.78;;;;;;;;;;5061853;28;20049;-69
2022/10/06 01:45:20;;;;;;;8.43;1.58;;;;;;;;;;5063699;28;20102;-70
2022/10/06 01:47:47;;;;;;;5.38;1.67;;;;;;;;;;5061569;28;20049;-70
2022/10/06 01:50:13;;;;;;;6.00;1.52;;;;;;;;;;5061700;28;20103;-70
2022/10/06 01:52:40;;;;;;;7.53;1.60;;;;;;;;;;5064091;28;20723;-69
2022/10/06 01:55:06;;;;;;;10.27;1.80;;;;;;;;;;5062973;28;20052;-70
2022/10/06 01:57:37;;;;;;;2.80;1.38;;;;;;;;;;5063240;28;20045;-70
2022/10/06 02:00:03;;;;;;;9.93;1.50;;;;;;;;;;5061544;28;20487;-70
2022/10/06 02:02:30;;;;;;;9.30;1.77;;;;;;;;;;5062482;28;20100;-69
2022/10/06 02:04:57;;;;;;;10.27;1.20;;;;;;;;;;5061252;28;20050;-69
2022/10/06 02:07:23;;;;;;;8.85;1.40;;;;;;;;;;5063432;28;20475;-70
2022/10/06 02:09:50;;;;;;;8.10;1.73;;;;;;;;;;5059859;28;20526;-69
2022/10/06 02:12:16;;;;;;;6.03;1.17;;;;;;;;;;5063182;28;20059;-69
2022/10/06 02:14:42;;;;;;;12.38;1.65;;;;;;;;;;5060589;28;20317;-69
2022/10/06 02:17:09;;;;;;;10.35;2.58;;;;;;;;;;5058048;28;20080;-69
2022/10/06 02:19:35;;;;;;;10.50;2.17;;;;;;;;;;5061647;28;20498;-69
2022/10/06 02:22:01;;;;;;;5.97;1.10;;;;;;;;;;5060917;28;20053;-70
2022/10/06 02:24:29;;;;;;;11.90;1.67;;;;;;;;;;5062796;28;20527;-69
2022/10/06 02:26:55;;;;;;;9.05;1.52;;;;;;;;;;5063179;28;20104;-69
2022/10/06 02:29:21;;;;;;;10.95;2.20;;;;;;;;;;5063078;28;20056;-70
2022/10/06 02:31:48;;;;;;;7.00;1.52;;;;;;;;;;5062492;28;20053;-69
2022/10/06 02:34:15;;;;;;;4.88;1.05;;;;;;;;;;5061294;28;20057;-70
2022/10/06 02:36:41;;;;;;;8.00;1.52;;;;;;;;;;5060433;28;20061;-70
2022/10/06 02:39:08;;;;;;;8.50;1.45;;;;;;;;;;5060735;28;20049;-69
2022/10/06 02:41:34;;;;;;;6.82;1.40;;;;;;;;;;5061466;28;20053;-69
2022/10/06 02:44:00;;;;;;;13.77;2.60;;;;;;;;;;5061721;28;20511;-69
2022/10/06 02:46:27;;;;;;;6.13;2.08;;;;;;;;;;5061370;28;20514;-69
2022/10/06 02:48:53;;;;;;;13.70;2.55;;;;;;;;;;5062002;28;20085;-69
2022/10/06 02:51:20;;;;;;;6.00;1.20;;;;;;;;;;5061581;28;20056;-69
2022/10/06 02:53:47;;;;;;;4.78;1.40;;;;;;;;;;5060865;28;20673;-69
2022/10/06 02:56:17;;;;;;;7.95;1.27;;;;;;;;;;5062062;28;20045;-69
2022/10/06 02:58:44;;;;;;;5.25;1.23;;;;;;;;;;5060830;28;20049;-69
2022/10/06 03:01:11;;;;;;;4.80;1.02;;;;;;;;;;5062750;28;20507;-69
2022/10/06 03:03:38;;;;;;;5.80;1.42;;;;;;;;;;5062998;28;20053;-69
2022/10/06 03:06:04;;;;;;;9.38;1.55;;;;;;;;;;5058595;28;20096;-69
2022/10/06 03:08:31;;;;;;;5.25;1.15;;;;;;;;;;5060398;28;20530;-69
2022/10/06 03:11:01;;;;;;;9.68;1.65;;;;;;;;;;5043172;28;20041;-69
2022/10/06 03:13:28;;;;;;;10.60;1.42;;;;;;;;;;5044293;28;20049;-69
2022/10/06 03:15:55;;;;;;;9.18;2.28;;;;;;;;;;5044844;28;20064;-69
2022/10/06 03:18:21;;;;;;;7.40;2.55;;;;;;;;;;5059109;28;20088;-69
2022/10/06 03:20:48;;;;;;;9.10;1.55;;;;;;;;;;5061921;28;20549;-69
2022/10/06 03:23:14;;;;;;;4.68;1.20;;;;;;;;;;5062668;28;20053;-69
2022/10/06 03:25:40;;;;;;;5.63;0.98;;;;;;;;;;5062274;28;20053;-70
2022/10/06 03:28:07;;;;;;;10.52;1.90;;;;;;;;;;5060423;28;20518;-69
2022/10/06 03:30:35;;;;;;;9.73;2.03;;;;;;;;;;5061155;28;20057;-69
2022/10/06 03:33:01;;;;;;;4.28;1.00;;;;;;;;;;5062941;28;20131;-69
2022/10/06 03:35:28;;;;;;;8.90;1.20;;;;;;;;;;5061935;28;20049;-69
2022/10/06 03:37:54;;;;;;;15.45;1.25;;;;;;;;;;5062257;28;20081;-69
2022/10/06 03:40:21;;;;;;;12.05;1.65;;;;;;;;;;5059572;28;20060;-69
2022/10/06 03:42:47;;;;;;;7.47;1.58;;;;;;;;;;5060676;28;20839;-69
2022/10/06 03:45:13;;;;;;;5.53;1.05;;;;;;;;;;5062226;28;20439;-69
2022/10/06 03:47:39;;;;;;;7.85;1.13;;;;;;;;;;5061223;28;20053;-69
2022/10/06 03:50:06;;;;;;;9.88;1.63;;;;;;;;;;5061997;28;20045;-69
2022/10/06 03:52:33;;;;;;;9.65;1.67;;;;;;;;;;5058787;28;20065;-69
2022/10/06 03:54:59;;;;;;;14.85;2.40;;;;;;;;;;5062383;28;20565;-69
2022/10/06 03:57:25;;;;;;;11.43;1.88;;;;;;;;;;5062100;28;20053;-69
2022/10/06 03:59:51;;;;;;;9.55;1.48;;;;;;;;;;5061843;28;20045;-69
2022/10/06 04:02:18;;;;;;;8.77;1.45;;;;;;;;;;5063591;28;20045;-70
2022/10/06 04:04:44;;;;;;;10.52;2.05;;;;;;;;;;5064532;28;20049;-70
2022/10/06 04:07:10;;;;;;;4.18;1.52;;;;;;;;;;5062373;28;20056;-69
2022/10/06 04:09:37;;;;;;;9.50;1.33;;;;;;;;;;5065652;28;20427;-69
2022/10/06 04:12:03;;;;;;;4.25;1.60;;;;;;;;;;5064167;28;20057;-69
2022/10/06 04:14:29;;;;;;;9.27;1.45;;;;;;;;;;5063950;28;20057;-69
2022/10/06 04:16:56;;;;;;;7.53;1.90;;;;;;;;;;5063800;28;20048;-69
2022/10/06 04:19:22;;;;;;;9.55;2.30;;;;;;;;;;5065063;28;20057;-69
2022/10/06 04:21:48;;;;;;;12.10;2.13;;;;;;;;;;5065373;28;20538;-69
2022/10/06 04:24:18;;;;;;;4.68;1.08;;;;;;;;;;5064711;28;20057;-69
2022/10/06 04:26:45;;;;;;;7.70;1.75;;;;;;;;;;5064708;28;20529;-70
2022/10/06 04:29:11;;;;;;;6.03;1.23;;;;;;;;;;5060427;28;20521;-69
2022/10/06 04:31:39;;;;;;;11.18;1.95;;;;;;;;;;5074223;28;20099;-69
2022/10/06 04:34:07;;;;;;;8.25;2.63;;;;;;;;;;5064810;28;20163;-69
2022/10/06 04:36:37;;;;;;;9.68;1.42;;;;;;;;;;5074891;28;20056;-69
2022/10/06 04:39:05;;;;;;;8.05;1.70;;;;;;;;;;5063771;28;20056;-69
2022/10/06 04:41:33;;;;;;;11.65;2.17;;;;;;;;;;5063592;28;20049;-70
2022/10/06 04:43:59;;;;;;;7.80;1.30;;;;;;;;;;5064341;28;20071;-69
2022/10/06 04:46:27;;;;;;;10.30;1.73;;;;;;;;;;5064990;28;20049;-69
2022/10/06 04:49:09;;;;;;;15.63;3.22;;;;;;;;;;5062169;28;20422;-69
2022/10/06 04:51:43;;;;;;;13.07;1.55;;;;;;;;;;5062645;28;20111;-69
2022/10/06 04:54:09;;;;;;;13.15;1.63;;;;;;;;;;5051308;28;20056;-70
2022/10/06 04:56:35;;;;;;;11.25;1.52;;;;;;;;;;5063955;28;20519;-70
2022/10/06 04:59:02;;;;;;;7.13;2.08;;;;;;;;;;5064249;28;20045;-69
2022/10/06 05:01:33;;;;;;;9.43;1.50;;;;;;;;;;5064538;28;20596;-71
2022/10/06 05:04:00;;;;;;;7.25;1.75;;;;;;;;;;5062467;28;20052;-69
2022/10/06 05:06:31;;;;;;;11.13;1.77;;;;;;;;;;5063507;28;20487;-69
2022/10/06 05:08:58;;;;;;;8.18;1.42;;;;;;;;;;5064906;28;20049;-69
2022/10/06 05:11:25;;;;;;;10.50;1.55;;;;;;;;;;5064149;28;20132;-69
2022/10/06 05:13:55;;;;;;;8.75;1.38;;;;;;;;;;5061669;28;20060;-69
2022/10/06 05:16:22;;;;;;;10.35;1.73;;;;;;;;;;5064605;28;20052;-69
2022/10/06 05:18:48;;;;;;;4.00;1.25;;;;;;;;;;5067431;28;20053;-69
2022/10/06 05:21:19;;;;;;;9.68;1.83;;;;;;;;;;5064512;28;20057;-69
2022/10/06 05:23:47;;;;;;;8.27;1.98;;;;;;;;;;5062571;28;20060;-70
2022/10/06 05:26:24;;;;;;;8.52;1.45;;;;;;;;;;5063645;28;20116;-70
2022/10/06 05:28:50;;;;;;;11.43;2.05;;;;;;;;;;5062889;28;20057;-69
2022/10/06 05:31:20;;;;;;;10.75;2.25;;;;;;;;;;5064225;28;20060;-69
2022/10/06 05:33:47;;;;;;;11.77;1.75;;;;;;;;;;5063488;28;20056;-69
2022/10/06 05:36:15;;;;;;;8.90;1.60;;;;;;;;;;5062295;28;20060;-69
2022/10/06 05:38:42;;;;;;;11.20;2.13;;;;;;;;;;5061710;28;20045;-69
2022/10/06 05:41:13;;;;;;;8.15;1.90;;;;;;;;;;5063907;28;20519;-69
2022/10/06 05:43:40;;;;;;;9.23;1.60;;;;;;;;;;5064302;28;20053;-69
2022/10/06 05:46:11;;;;;;;7.20;1.35;;;;;;;;;;5061005;28;20049;-70
2022/10/06 05:48:37;;;;;;;16.23;1.98;;;;;;;;;;5061329;28;20057;-69
2022/10/06 05:51:05;;;;;;;9.82;1.90;;;;;;;;;;5061004;28;20064;-67
2022/10/06 05:53:33;;;;;;;5.85;1.52;;;;;;;;;;5058655;28;20060;-67
2022/10/06 05:56:02;;;;;;;15.25;2.00;;;;;;;;;;5057619;28;20056;-68
2022/10/06 05:58:29;;;;;;;8.95;1.63;;;;;;;;;;5062632;28;20056;-70
2022/10/06 06:01:04;;;;;;;9.63;1.58;;;;;;;;;;5061714;28;20057;-69
2022/10/06 06:03:30;;;;;;;13.80;2.03;;;;;;;;;;5062888;28;20045;-69
2022/10/06 06:05:56;;;;;;;6.60;1.13;;;;;;;;;;5058218;28;20060;-69
2022/10/06 06:08:23;;;;;;;11.70;1.75;;;;;;;;;;5058006;28;20053;-69
2022/10/06 06:10:49;;;;;;;8.48;1.60;;;;;;;;;;5063413;28;20053;-68
2022/10/06 06:13:20;;;;;;;5.07;1.63;;;;;;;;;;5062014;28;20053;-67
2022/10/06 06:16:03;;;;;;;9.10;2.10;;;;;;;;;;5060322;28;20045;-68
2022/10/06 06:18:30;;;;;;;11.52;2.22;;;;;;;;;;5059538;28;20825;-67
2022/10/06 06:20:58;;;;;;;8.98;2.35;;;;;;;;;;5045654;28;20111;-68
2022/10/06 06:23:29;;;;;;;11.30;2.08;;;;;;;;;;5057809;28;20049;-68
2022/10/06 06:26:06;;;;;;;6.18;1.48;;;;;;;;;;5062299;28;20048;-68
2022/10/06 06:28:34;;;;;;;11.40;2.50;;;;;;;;;;5061721;28;20061;-69
2022/10/06 06:31:22;;;;;;;12.35;1.50;;;;;;;;;;5062761;28;20056;-69
2022/10/06 06:33:53;;;;;;;12.60;2.00;;;;;;;;;;5059817;28;20057;-69
2022/10/06 06:36:24;;;;;;;9.35;2.10;;;;;;;;;;5058425;28;20057;-68
2022/10/06 06:38:51;;;;;;;11.13;2.28;;;;;;;;;;5060853;28;20049;-68
2022/10/06 06:41:20;;;;;;;10.88;1.52;;;;;;;;;;5062132;28;20052;-69
2022/10/06 06:43:47;;;;;;;11.40;1.85;;;;;;;;;;5061573;28;20518;-68
2022/10/06 06:46:14;;;;;;;13.60;1.73;;;;;;;;;;5054532;28;20049;-67
2022/10/06 06:48:41;;;;;;;14.10;2.03;;;;;;;;;;5042599;28;20136;-68
2022/10/06 06:51:10;;;;;;;6.03;1.50;;;;;;;;;;5054399;28;20061;-68
2022/10/06 06:53:36;;;;;;;7.40;1.42;;;;;;;;;;5059759;28;20083;-67
2022/10/06 06:56:03;;;;;;;6.30;1.55;;;;;;;;;;5058931;28;20127;-67
2022/10/06 06:58:30;;;;;;;7.82;1.52;;;;;;;;;;5060685;28;20079;-67
2022/10/06 07:01:13;;;;;;;8.15;1.83;;;;;;;;;;5060959;28;20057;-66
2022/10/06 07:03:44;;;;;;;10.70;2.40;;;;;;;;;;5062370;28;20060;-67
2022/10/06 07:06:25;;;;;;;11.68;2.40;;;;;;;;;;5061360;28;20140;-67
2022/10/06 07:08:54;;;;;;;13.02;1.65;;;;;;;;;;5058175;28;20141;-66
2022/10/06 07:11:24;;;;;;;12.40;1.85;;;;;;;;;;5059039;28;20115;-66
2022/10/06 07:13:52;;;;;;;6.88;1.52;;;;;;;;;;5053020;28;20053;-67
2022/10/06 07:25:05;;;;;;;19.23;1.98;;;;;;;;;;5060117;28;20128;-67
2022/10/06 07:27:33;;;;;;;10.40;1.83;;;;;;;;;;5041391;28;20164;-68
2022/10/06 07:30:00;;;;;;;13.80;2.65;;;;;;;;;;5041556;28;20157;-69
2022/10/06 07:32:29;;;;;;;11.73;2.30;;;;;;;;;;5051808;28;20053;-68
2022/10/06 07:34:57;;;;;;;4.30;1.75;;;;;;;;;;5058100;28;20053;-68
2022/10/06 07:37:24;;;;;;;12.43;2.05;;;;;;;;;;5059549;28;20061;-68
2022/10/06 07:39:50;;;;;;;9.88;2.80;;;;;;;;;;5061302;28;20481;-67
2022/10/06 07:42:17;;;;;;;7.60;2.00;;;;;;;;;;5059552;28;20101;-67
2022/10/06 07:45:36;;;;;;;5.15;1.77;;;;;;;;;;5059538;28;20068;-66
2022/10/06 07:47:30;;;;;;;17.27;2.50;;;;;;;;;;5061107;28;20136;-66
2022/10/06 07:49:57;;;;;;;7.97;3.03;;;;;;;;;;5060142;28;20060;-65
2022/10/06 07:52:24;;;;;;;9.80;1.60;;;;;;;;;;5058004;28;20066;-66
2022/10/06 07:54:50;;;;;;;7.80;1.90;;;;;;;;;;5059502;28;20056;-68
2022/10/06 07:57:17;;;;;;;5.57;1.63;;;;;;;;;;5058512;28;20049;-69
2022/10/06 07:59:43;;;;;;;7.95;1.98;;;;;;;;;;5054337;28;20052;-66
2022/10/06 08:02:09;;;;;;;8.80;1.95;;;;;;;;;;5051267;28;20057;-67
2022/10/06 08:04:36;;;;;;;12.55;1.75;;;;;;;;;;5056011;28;20060;-68
2022/10/06 08:07:03;;;;;;;12.63;1.95;;;;;;;;;;5058085;28;20099;-68
2022/10/06 08:09:29;;;;;;;13.93;2.33;;;;;;;;;;5060053;28;20049;-68
2022/10/06 08:11:56;;;;;;;10.25;1.77;;;;;;;;;;5053547;28;20045;-68
2022/10/06 08:14:23;;;;;;;9.80;2.50;;;;;;;;;;5067224;28;20103;-69
2022/10/06 08:16:49;;;;;;;15.95;2.22;;;;;;;;;;5059904;28;20088;-69
2022/10/06 08:19:18;;;;;;;8.55;2.35;;;;;;;;;;5061556;28;20542;-70
2022/10/06 08:21:45;;;;;;;12.85;2.88;;;;;;;;;;5058269;28;20053;-70
2022/10/06 08:24:11;;;;;;;11.23;1.95;;;;;;;;;;5060343;28;20049;-69
2022/10/06 08:26:37;;;;;;;13.35;1.90;;;;;;;;;;5058860;28;20049;-69
2022/10/06 08:29:04;;;;;;;8.50;2.15;;;;;;;;;;5058778;28;20080;-70
2022/10/06 08:31:31;;;;;;;8.90;1.70;;;;;;;;;;5059264;28;20061;-70
2022/10/06 08:34:00;;;;;;;7.93;2.20;;;;;;;;;;5060907;28;20060;-68
2022/10/06 08:36:26;;;;;;;6.22;2.10;;;;;;;;;;5060391;28;20063;-68
2022/10/06 08:38:57;;;;;;;5.80;1.80;;;;;;;;;;5057920;28;20065;-68
2022/10/06 08:41:26;;;;;;;8.60;1.63;;;;;;;;;;5059426;28;20057;-68
2022/10/06 08:43:56;;;;;;;9.98;1.80;;;;;;;;;;5060375;28;20584;-68
2022/10/06 08:46:24;;;;;;;8.15;1.58;;;;;;;;;;5060547;28;20049;-69
2022/10/06 08:48:50;;;;;;;5.32;1.73;;;;;;;;;;5060189;28;20577;-70
2022/10/06 08:51:18;;;;;;;12.13;1.60;;;;;;;;;;5062924;28;20084;-68
2022/10/06 08:53:53;;;;;;;11.30;1.52;;;;;;;;;;5061912;28;20053;-70
2022/10/06 08:56:20;;;;;;;;;;;;;;;;;;5058994;28;20085;-69
2022/10/06 08:58:54;;;;;;;11.48;1.73;;;;;;;;;;5059772;28;45107;-69
2022/10/06 09:01:22;;;;;;;4.47;1.40;;;;;;;;;;5055247;28;20053;-68
2022/10/06 09:03:51;;;;;;;13.75;1.50;;;;;;;;;;5062361;28;20160;-67
2022/10/06 09:06:26;;;;;;;9.52;1.30;;;;;;;;;;5060486;28;20060;-67
2022/10/06 09:08:54;;;;;;;5.90;1.95;;;;;;;;;;5061894;28;20060;-67
2022/10/06 09:11:23;;;;;;;13.07;2.67;;;;;;;;;;5061030;28;20045;-67
2022/10/06 09:13:55;;;;;;;7.15;1.60;;;;;;;;;;5061891;28;20060;-67
2022/10/06 09:16:31;;;;;;;12.07;1.40;;;;;;;;;;5060846;28;20053;-68
2022/10/06 09:19:07;;;;;;;8.32;1.70;;;;;;;;;;5057757;28;20037;-70
2022/10/06 09:21:34;;;;;;;11.10;1.35;;;;;;;;;;5063725;28;20064;-68
2022/10/06 09:24:06;;;;;;;19.10;1.85;;;;;;;;;;5061326;28;20064;-69
2022/10/06 09:26:32;;;;;;;8.68;1.17;;;;;;;;;;5062195;28;20057;-68
2022/10/06 09:28:59;;;;;;;10.63;1.98;;;;;;;;;;5062367;28;20064;-69
2022/10/06 09:31:27;;;;;;;10.15;1.58;;;;;;;;;;5062735;28;20041;-69
2022/10/06 09:33:58;;;;;;;12.02;1.25;;;;;;;;;;5054412;28;20064;-69
2022/10/06 09:36:24;;;;;;;9.75;1.85;;;;;;;;;;5058203;28;20057;-66
2022/10/06 09:38:54;;;;;;;6.00;1.60;;;;;;;;;;5055933;28;20056;-69
2022/10/06 09:41:23;;;;;;;4.15;1.30;;;;;;;;;;5059998;28;20055;-69
2022/10/06 09:43:51;;;;;;;9.32;1.45;;;;;;;;;;5062200;28;20077;-70
2022/10/06 09:46:40;;;;;;;12.93;1.60;;;;;;;;;;5061562;28;20049;-69
2022/10/06 09:49:14;;;;;;;9.82;2.30;;;;;;;;;;5060497;28;20057;-70
2022/10/06 09:51:40;;;;;;;8.48;1.05;;;;;;;;;;5061953;28;20056;-70
2022/10/06 09:54:09;;;;;;;14.30;1.45;;;;;;;;;;5059362;28;20048;-69
2022/10/06 09:56:43;;;;;;;7.30;1.42;;;;;;;;;;5059584;28;20053;-68
2022/10/06 09:59:20;;;;;;;4.82;1.33;;;;;;;;;;5075434;28;20057;-68
2022/10/06 10:01:58;;;;;;;7.47;1.27;;;;;;;;;;5060466;28;20061;-68
2022/10/06 10:04:26;;;;;;;5.43;1.20;;;;;;;;;;5057883;28;20052;-69
2022/10/06 10:06:52;;;;;;;10.75;1.67;;;;;;;;;;5063218;28;20060;-68
2022/10/06 10:09:24;;;;;;;8.35;1.40;;;;;;;;;;5063385;28;20589;-68
2022/10/06 10:12:24;;;;;;;4.60;0.80;;;;;;;;;;5059214;28;20041;-68
2022/10/06 10:14:51;;;;;;;7.40;1.58;;;;;;;;;;5060538;28;20501;-70
2022/10/06 10:17:19;;;;;;;10.55;1.58;;;;;;;;;;5061350;28;20068;-69
2022/10/06 10:19:51;;;;;;;12.80;2.67;;;;;;;;;;5063372;28;20057;-69
2022/10/06 10:22:23;;;;;;;7.50;1.58;;;;;;;;;;5059713;28;20136;-69
2022/10/06 10:24:49;;;;;;;10.30;2.35;;;;;;;;;;5059863;28;20056;-70
2022/10/06 10:27:21;;;;;;;5.60;1.63;;;;;;;;;;5061350;28;20767;-68
2022/10/06 10:30:22;;;;;;;7.13;1.65;;;;;;;;;;5060459;28;20061;-69
2022/10/06 10:32:59;;;;;;;6.80;2.35;;;;;;;;;;5039665;28;20053;-68
2022/10/06 10:35:27;;;;;;;13.13;2.33;;;;;;;;;;5061715;28;20076;-69
2022/10/06 10:38:00;;;;;;;3.88;1.52;;;;;;;;;;5062858;28;20048;-68
2022/10/06 10:40:28;;;;;;;5.70;1.92;;;;;;;;;;5061686;28;20498;-68
2022/10/06 10:43:12;;;;;;;8.77;1.58;;;;;;;;;;5061773;28;20519;-68
2022/10/06 10:45:45;;;;;;;9.30;1.42;;;;;;;;;;5060953;28;20329;-68
2022/10/06 10:48:17;;;;;;;9.68;1.35;;;;;;;;;;5055832;28;20049;-67
2022/10/06 10:50:43;;;;;;;9.45;1.40;;;;;;;;;;5062404;28;20057;-68
2022/10/06 10:53:13;;;;;;;5.57;1.02;;;;;;;;;;5058524;28;20416;-67
2022/10/06 10:55:41;;;;;;;8.93;1.40;;;;;;;;;;5059799;28;20126;-67
2022/10/06 10:58:40;;;;;;;5.65;1.00;;;;;;;;;;5061366;28;20052;-68
2022/10/06 11:01:25;;;;;;;2.30;0.82;;;;;;;;;;5019620;28;20049;-67
2022/10/06 11:03:55;;;;;;;6.37;1.57;;;;;;;;;;5058485;28;20053;-68
2022/10/06 11:06:41;;;;;;;6.60;1.58;;;;;;;;;;5055095;28;20045;-68
2022/10/06 11:09:18;;;;;;;9.38;1.15;;;;;;;;;;5061346;28;20056;-67
2022/10/06 11:11:59;;;;;;;5.70;1.08;;;;;;;;;;5060766;28;20060;-67
2022/10/06 11:14:25;;;;;;;3.40;0.98;;;;;;;;;;5051138;28;20056;-69
2022/10/06 11:17:12;;;;;;;2.63;0.90;;;;;;;;;;5056946;28;20091;-68
2022/10/06 11:19:56;;;;;;;2.42;1.00;;;;;;;;;;5049261;28;20518;-68
2022/10/06 11:22:35;;;;;;;3.67;0.70;;;;;;;;;;5061097;28;20093;-67
2022/10/06 11:25:19;;;;;;;3.83;0.90;;;;;;;;;;5051281;28;20092;-67
2022/10/06 11:28:04;;;;;;;5.80;0.93;;;;;;;;;;5060058;28;20052;-67
2022/10/06 11:30:34;;;;;;;7.38;1.42;;;;;;;;;;5058121;28;20053;-67
2022/10/06 11:33:12;;;;;;;3.33;0.90;;;;;;;;;;5061526;28;20060;-68
2022/10/06 11:35:40;;;;;;;6.65;1.15;;;;;;;;;;5057509;28;20106;-68
2022/10/06 11:38:14;;;;;;;5.30;1.15;;;;;;;;;;5060490;28;20891;-68
2022/10/06 11:40:57;;;;;;;5.25;0.85;;;;;;;;;;5059688;28;20111;-68
2022/10/06 11:43:34;;;;;;;3.75;0.82;;;;;;;;;;5061126;28;20045;-69
2022/10/06 11:46:03;;;;;;;4.60;1.25;;;;;;;;;;5055974;28;20052;-68
2022/10/06 11:48:30;;;;;;;9.88;1.38;;;;;;;;;;5058508;28;20511;-69
2022/10/06 11:51:32;;;;;;;8.30;1.25;;;;;;;;;;5064545;28;20047;-67
2022/10/06 11:53:58;;;;;;;7.13;1.20;;;;;;;;;;5016651;28;20585;-69
2022/10/06 11:56:37;;;;;;;7.70;1.23;;;;;;;;;;5017604;28;20057;-67
2022/10/06 11:59:22;;;;;;;7.03;1.10;;;;;;;;;;5011937;28;20054;-67
2022/10/06 12:01:50;;;;;;;4.60;0.93;;;;;;;;;;5017115;28;20054;-67
2022/10/06 12:04:17;;;;;;;6.63;1.27;;;;;;;;;;5018837;28;20705;-68
2022/10/06 12:06:49;;;;;;;6.13;1.30;;;;;;;;;;5015082;28;20559;-69
2022/10/06 12:09:24;;;;;;;6.25;1.17;;;;;;;;;;5022219;28;20210;-69
2022/10/06 12:11:52;;;;;;;4.13;1.08;;;;;;;;;;5015389;28;20225;-68
2022/10/06 12:14:29;;;;;;;4.68;1.48;;;;;;;;;;5018183;28;20681;-69
2022/10/06 12:17:36;;;;;;;3.63;0.98;;;;;;;;;;5006580;28;20058;-68
2022/10/06 12:20:21;;;;;;;7.18;0.93;;;;;;;;;;5017297;28;20057;-67
2022/10/06 12:22:59;;;;;;;4.03;0.95;;;;;;;;;;5016274;28;20649;-70
2022/10/06 12:25:30;;;;;;;5.70;1.05;;;;;;;;;;5005122;28;20092;-69
2022/10/06 12:28:16;;;;;;;5.18;0.90;;;;;;;;;;5038149;28;20195;-69
2022/10/06 12:30:46;;;;;;;5.22;1.27;;;;;;;;;;5052381;28;20041;-69
2022/10/06 12:33:17;;;;;;;3.30;1.15;;;;;;;;;;5062958;28;20051;-68
2022/10/06 12:35:43;;;;;;;8.23;1.55;;;;;;;;;;5062453;28;20057;-68
2022/10/06 12:38:28;;;;;;;5.65;1.20;;;;;;;;;;5064009;28;20593;-68
2022/10/06 12:40:55;;;;;;;4.93;0.90;;;;;;;;;;5058366;28;20546;-68
2022/10/06 12:43:21;;;;;;;7.68;1.67;;;;;;;;;;5062525;28;20434;-68
2022/10/06 12:45:53;;;;;;;5.85;0.90;;;;;;;;;;5064505;28;20115;-67
2022/10/06 12:48:30;;;;;;;3.88;1.10;;;;;;;;;;5064507;28;20053;-71
2022/10/06 12:51:01;;;;;;;2.60;1.00;;;;;;;;;;5061790;28;20057;-71
2022/10/06 12:53:32;;;;;;;5.10;1.70;;;;;;;;;;5063501;28;20057;-71
2022/10/06 12:56:04;;;;;;;7.00;1.42;;;;;;;;;;5059904;28;20091;-67
2022/10/06 12:58:32;;;;;;;9.38;1.77;;;;;;;;;;5062742;28;20057;-66
2022/10/06 13:00:59;;;;;;;4.82;1.38;;;;;;;;;;5062340;28;20076;-67
2022/10/06 13:03:27;;;;;;;7.43;1.20;;;;;;;;;;5061806;28;20537;-67
2022/10/06 13:05:55;;;;;;;5.50;1.20;;;;;;;;;;5063095;28;20056;-69
2022/10/06 13:08:29;;;;;;;2.70;1.23;;;;;;;;;;5062851;28;20088;-69
2022/10/06 13:11:14;;;;;;;4.22;0.95;;;;;;;;;;5062034;28;20049;-68
2022/10/06 13:13:48;;;;;;;6.45;1.48;;;;;;;;;;5059207;28;20053;-69
2022/10/06 13:16:15;;;;;;;8.30;1.13;;;;;;;;;;5060392;28;20052;-67
2022/10/06 13:18:42;;;;;;;6.40;1.80;;;;;;;;;;5058684;28;20053;-68
2022/10/06 13:21:13;;;;;;;5.85;1.25;;;;;;;;;;5057282;28;20053;-68
2022/10/06 13:23:39;;;;;;;6.43;1.35;;;;;;;;;;5057287;28;20052;-67
2022/10/06 13:26:07;;;;;;;5.47;1.13;;;;;;;;;;5061965;28;20052;-68
2022/10/06 13:28:42;;;;;;;4.82;1.20;;;;;;;;;;5058987;28;20053;-68
2022/10/06 13:31:15;;;;;;;6.78;1.00;;;;;;;;;;5062800;28;20110;-69
2022/10/06 13:33:43;;;;;;;5.53;1.25;;;;;;;;;;5062226;28;20063;-69
2022/10/06 13:36:09;;;;;;;6.25;1.02;;;;;;;;;;5059734;28;20521;-67
2022/10/06 13:38:36;;;;;;;3.58;1.13;;;;;;;;;;5068002;28;20648;-69
2022/10/06 13:41:04;;;;;;;3.60;1.10;;;;;;;;;;5061327;28;20049;-70
2022/10/06 13:43:31;;;;;;;4.10;1.30;;;;;;;;;;5058251;28;20108;-70
2022/10/06 13:46:24;;;;;;;3.88;0.90;;;;;;;;;;5052596;28;20392;-69
2022/10/06 13:48:59;;;;;;;2.90;0.65;;;;;;;;;;5057324;28;20056;-68
2022/10/06 13:51:31;;;;;;;5.30;1.55;;;;;;;;;;5051545;28;20057;-67
2022/10/06 13:53:57;;;;;;;2.28;0.90;;;;;;;;;;5051100;28;20053;-69
2022/10/06 13:56:26;;;;;;;5.25;1.33;;;;;;;;;;5067553;28;20531;-67
2022/10/06 13:59:12;;;;;;;8.73;1.65;;;;;;;;;;5060954;28;20056;-68
2022/10/06 14:01:38;;;;;;;4.05;1.20;;;;;;;;;;5060999;28;20087;-65
2022/10/06 14:04:12;;;;;;;4.03;1.00;;;;;;;;;;5061963;28;20053;-66
2022/10/06 14:06:44;;;;;;;7.28;1.10;;;;;;;;;;5061724;28;20052;-66
2022/10/06 14:09:12;;;;;;;5.80;0.60;;;;;;;;;;5057796;28;20420;-66
2022/10/06 14:11:39;;;;;;;3.92;1.35;;;;;;;;;;5060524;28;20052;-66
2022/10/06 14:14:13;;;;;;;5.57;0.85;;;;;;;;;;5059640;28;20052;-67
2022/10/06 14:16:45;;;;;;;3.45;0.90;;;;;;;;;;5062315;28;20052;-68
2022/10/06 14:19:29;;;;;;;4.45;1.20;;;;;;;;;;5061492;28;20545;-69
2022/10/06 14:21:56;;;;;;;11.98;1.80;;;;;;;;;;5060998;28;20052;-68
2022/10/06 14:24:26;;;;;;;3.67;0.77;;;;;;;;;;5061735;28;20121;-67
2022/10/06 14:26:53;;;;;;;1.90;0.68;;;;;;;;;;5056372;28;20045;-66
2022/10/06 14:29:21;;;;;;;2.25;0.90;;;;;;;;;;5060259;28;20493;-68
2022/10/06 14:31:47;;;;;;;3.38;0.90;;;;;;;;;;5060464;28;20060;-67
2022/10/06 14:34:15;;;;;;;5.47;1.50;;;;;;;;;;5059401;28;20053;-67
2022/10/06 14:36:43;;;;;;;3.83;0.60;;;;;;;;;;5062781;28;20053;-66
2022/10/06 14:39:13;;;;;;;2.17;0.63;;;;;;;;;;5069616;28;20558;-69
2022/10/06 14:41:40;;;;;;;2.10;0.65;;;;;;;;;;5055428;28;20053;-67
2022/10/06 14:44:10;;;;;;;6.57;1.13;;;;;;;;;;5060628;28;20049;-69
2022/10/06 14:46:41;;;;;;;3.60;1.10;;;;;;;;;;5058353;28;20589;-66
2022/10/06 14:49:08;;;;;;;0.80;0.38;;;;;;;;;;5060127;28;20053;-68
2022/10/06 14:51:36;;;;;;;2.55;0.77;;;;;;;;;;5074277;28;20457;-67
2022/10/06 14:54:03;;;;;;;6.15;0.73;;;;;;;;;;5067960;28;20052;-67
2022/10/06 14:56:31;;;;;;;6.05;0.82;;;;;;;;;;5061549;28;20061;-68
2022/10/06 14:58:59;;;;;;;5.93;1.30;;;;;;;;;;5062034;28;20053;-66
2022/10/06 15:01:27;;;;;;;3.40;0.80;;;;;;;;;;5043937;28;20055;-66
2022/10/06 15:03:54;;;;;;;4.00;0.70;;;;;;;;;;5052148;28;20544;-64
2022/10/06 15:09:06;;;;;;;4.07;0.65;;;;;;;;;;5059479;28;20060;-65